Time;durP1;ratioP1;P1;durP2;ratioP2;P2;SDS_P1;SDS_P2;PMS_P1;PMS_P2;Temp;Humidity;BMP_temperature;BMP_pressure;BME280_temperature;BME280_humidity;BME280_pressure;Samples;Min_cycle;Max_cycle;Signal;HPM_P1;HPM_P2
2023/01/20 00:00:21;;;;;;;;;29.67;24.67;;;;;5.71;67.41;100859.72;5057630;28;45308;-74
2023/01/20 00:02:46;;;;;;;;;30.33;28.00;;;;;5.60;67.20;100822.72;5039646;28;45448;-72
2023/01/20 00:05:11;;;;;;;;;30.00;27.67;;;;;5.82;66.28;100874.78;5039339;28;45246;-76
2023/01/20 00:07:37;;;;;;;;;32.33;29.00;;;;;5.65;66.26;100857.53;5056500;28;58538;-74
2023/01/20 00:10:02;;;;;;;;;26.67;22.00;;;;;5.79;66.40;100870.56;5057088;28;45317;-77
2023/01/20 00:12:30;;;;;;;;;27.67;24.33;;;;;5.50;66.62;100830.44;5056757;28;45194;-74
2023/01/20 00:14:55;;;;;;;;;25.67;23.00;;;;;5.91;66.70;100883.88;5057254;28;45502;-75
2023/01/20 00:17:21;;;;;;;;;27.67;21.33;;;;;5.94;66.21;100899.47;5056282;28;45716;-75
2023/01/20 00:19:46;;;;;;;;;25.33;23.33;;;;;5.62;65.72;100846.38;5038550;28;45468;-76
2023/01/20 00:22:11;;;;;;;;;20.33;19.00;;;;;5.90;65.88;100898.84;5056921;28;45526;-73
2023/01/20 00:24:37;;;;;;;;;16.67;16.67;;;;;5.94;65.36;100912.66;5058833;28;52348;-73
2023/01/20 00:27:02;;;;;;;;;24.67;18.67;;;;;5.95;65.27;100896.72;5060363;28;46393;-75
2023/01/20 00:29:27;;;;;;;;;23.00;20.00;;;;;5.95;65.03;100902.00;5060521;28;45473;-74
2023/01/20 00:31:53;;;;;;;;;22.67;16.67;;;;;5.94;65.47;100907.38;5060192;28;46025;-73
2023/01/20 00:34:18;;;;;;;;;32.33;27.33;;;;;5.41;64.61;100833.75;5060599;28;45652;-74
2023/01/20 00:36:43;;;;;;;;;21.33;20.00;;;;;4.96;64.72;100777.19;5060213;28;51364;-76
2023/01/20 00:39:09;;;;;;;;;24.00;22.67;;;;;5.82;65.56;100914.38;5041973;28;51258;-75
2023/01/20 00:41:34;;;;;;;;;31.00;25.67;;;;;5.84;65.75;100932.72;5059889;28;48306;-74
2023/01/20 00:43:59;;;;;;;;;24.33;20.67;;;;;5.86;65.33;100922.91;5060715;28;45377;-76
2023/01/20 00:46:25;;;;;;;;;28.00;19.33;;;;;5.42;65.84;100872.34;5059865;28;46619;-75
2023/01/20 00:48:51;;;;;;;;;25.00;18.33;;;;;5.53;66.28;100900.59;5059828;28;45442;-76
2023/01/20 00:51:16;;;;;;;;;22.67;21.67;;;;;5.64;66.26;100932.34;5060109;28;45659;-77
2023/01/20 00:53:41;;;;;;;;;21.33;19.00;;;;;4.71;66.27;100793.88;5060080;28;45499;-75
2023/01/20 00:56:07;;;;;;;;;20.67;20.67;;;;;5.18;66.14;100874.88;5059752;28;46150;-74
2023/01/20 00:58:33;;;;;;;;;26.67;25.00;;;;;5.17;66.27;100883.75;5059702;28;45439;-74
2023/01/20 01:00:59;;;;;;;;;22.00;17.67;;;;;5.55;66.96;100947.94;5059711;28;45277;-74
2023/01/20 01:03:26;;;;;;;;;22.33;18.33;;;;;5.60;66.13;100944.03;5060336;28;45167;-73
2023/01/20 01:05:52;;;;;;;;;24.00;20.67;;;;;4.95;66.71;100825.56;5059805;28;45778;-72
2023/01/20 01:08:17;;;;;;;;;22.00;17.67;;;;;5.03;65.99;100839.06;5060917;28;45202;-74
2023/01/20 01:10:43;;;;;;;;;19.67;19.33;;;;;4.59;66.34;100763.09;5045166;28;45479;-74
2023/01/20 01:13:08;;;;;;;;;22.00;17.67;;;;;2.81;65.92;100465.81;5042194;28;45521;-74
2023/01/20 01:15:34;;;;;;;;;29.67;28.00;;;;;5.67;65.57;100950.59;5059458;28;45699;-72
2023/01/20 01:17:59;;;;;;;;;22.00;21.00;;;;;5.43;66.07;100918.03;5059378;28;45320;-73
2023/01/20 01:20:26;;;;;;;;;29.33;24.00;;;;;5.59;65.70;100954.69;5059533;28;45500;-74
2023/01/20 01:22:52;;;;;;;;;26.33;22.33;;;;;5.53;66.05;100958.59;5059606;28;45556;-73
2023/01/20 01:25:18;;;;;;;;;20.33;18.00;;;;;5.54;66.17;100959.44;5059414;28;46887;-74
2023/01/20 01:27:43;;;;;;;;;24.67;22.33;;;;;4.70;65.08;100830.84;5059744;28;45284;-72
2023/01/20 01:30:09;;;;;;;;;21.67;21.67;;;;;5.31;65.02;100964.50;5059679;28;45260;-74
2023/01/20 01:32:35;;;;;;;;;18.00;15.33;;;;;5.25;65.76;100967.59;5061186;28;45183;-72
2023/01/20 01:35:00;;;;;;;;;33.67;27.67;;;;;4.48;65.82;100850.72;5042497;28;48718;-75
2023/01/20 01:37:26;;;;;;;;;21.33;19.67;;;;;5.22;66.35;100986.25;5059142;28;57174;-76
2023/01/20 01:39:52;;;;;;;;;26.33;20.67;;;;;5.23;66.55;101005.53;5059391;28;45423;-73
2023/01/20 01:42:21;;;;;;;;;26.00;23.00;;;;;5.26;66.40;101000.91;5059467;28;45533;-73
2023/01/20 01:45:11;;;;;;;;;23.67;19.00;;;;;5.24;66.31;101004.59;5060036;28;46770;-74
2023/01/20 01:47:44;;;;;;;;;27.67;23.00;;;;;5.04;66.12;100980.41;5059153;28;45335;-73
2023/01/20 01:50:15;;;;;;;;;29.33;24.67;;;;;4.91;66.12;100984.81;5059403;28;45278;-76
2023/01/20 01:52:47;;;;;;;;;27.33;24.00;;;;;5.00;67.06;101013.16;5057959;28;45272;-74
2023/01/20 01:55:14;;;;;;;;;26.67;21.33;;;;;4.69;67.02;100959.03;5040778;28;47978;-72
2023/01/20 01:57:40;;;;;;;;;30.33;21.00;;;;;4.93;67.01;100995.25;5058633;28;45510;-74
2023/01/20 02:00:06;;;;;;;;;26.67;23.00;;;;;4.85;67.10;100983.44;5058493;28;45413;-73
2023/01/20 02:02:32;;;;;;;;;30.00;25.33;;;;;3.82;67.08;100822.63;5059155;28;45234;-75
2023/01/20 02:04:57;;;;;;;;;27.00;23.67;;;;;1.63;66.23;100448.03;5058839;28;45468;-74
2023/01/20 02:07:23;;;;;;;;;21.67;19.67;;;;;4.38;67.16;100914.59;5058171;28;59755;-76
2023/01/20 02:09:48;;;;;;;;;20.33;20.00;;;;;4.05;67.03;100851.88;5040791;28;45367;-74
2023/01/20 02:12:17;;;;;;;;;27.33;23.00;;;;;4.78;66.78;100966.31;5059028;28;45194;-73
2023/01/20 02:14:46;;;;;;;;;26.33;24.33;;;;;4.87;66.32;100981.53;5058487;28;45806;-73
2023/01/20 02:17:32;;;;;;;;;23.00;21.33;;;;;5.21;66.47;101036.44;5057750;28;45482;-74
2023/01/20 02:20:19;;;;;;;;;28.33;24.00;;;;;5.24;66.26;101033.59;5040709;28;45323;-72
2023/01/20 02:22:54;;;;;;;;;28.33;23.00;;;;;4.86;66.60;100958.78;5058852;28;45486;-75
2023/01/20 02:25:25;;;;;;;;;33.00;26.33;;;;;5.27;66.57;101034.22;5058400;28;46980;-74
2023/01/20 02:27:56;;;;;;;;;29.67;22.67;;;;;5.25;66.14;101032.63;5058708;28;45411;-74
2023/01/20 02:30:49;;;;;;;;;27.33;23.67;;;;;5.27;66.53;101042.13;5058331;28;45333;-73
2023/01/20 02:33:53;;;;;;;;;34.00;27.33;;;;;5.28;67.42;101032.41;5058427;28;45391;-74
2023/01/20 02:36:37;;;;;;;;;35.00;26.67;;;;;5.25;66.71;101037.91;5060592;28;45258;-74
2023/01/20 02:39:30;;;;;;;;;32.67;30.33;;;;;5.18;66.87;101054.09;5061395;28;45259;-74
2023/01/20 02:42:10;;;;;;;;;29.67;26.33;;;;;5.19;67.03;101070.75;5040038;28;45694;-73
2023/01/20 02:44:35;;;;;;;;;31.67;29.00;;;;;5.19;67.17;101065.50;5040164;28;45305;-74
2023/01/20 02:47:27;;;;;;;;;33.33;26.00;;;;;5.23;67.69;101063.53;5057342;28;46359;-72
2023/01/20 02:49:58;;;;;;;;;38.00;31.67;;;;;4.65;67.11;100972.53;5039940;28;45250;-74
2023/01/20 02:52:43;;;;;;;;;39.00;31.33;;;;;5.23;67.14;101069.66;5058160;28;45495;-76
2023/01/20 02:55:14;;;;;;;;;31.00;27.67;;;;;5.18;67.04;101054.09;5058198;28;45246;-73
2023/01/20 02:57:46;;;;;;;;;38.00;28.33;;;;;4.78;67.28;100989.19;5057802;28;46047;-75
2023/01/20 03:00:28;;;;;;;;;29.00;25.33;;;;;4.83;67.38;101002.91;5057546;28;45707;-75
2023/01/20 03:02:58;;;;;;;;;32.00;29.67;;;;;4.30;66.67;100904.56;5039745;28;45401;-74
2023/01/20 03:05:29;;;;;;;;;29.33;26.00;;;;;3.67;66.81;100803.41;5058197;28;45211;-72
2023/01/20 03:07:58;;;;;;;;;34.00;22.00;;;;;5.32;67.23;101079.56;5039592;28;47360;-73
2023/01/20 03:10:26;;;;;;;;;37.00;29.00;;;;;4.98;66.91;101025.59;5039607;28;45319;-72
2023/01/20 03:12:57;;;;;;;;;31.33;25.00;;;;;2.05;67.22;100539.75;5059204;28;45493;-71
2023/01/20 03:15:31;;;;;;;;;31.00;26.33;;;;;5.37;67.02;101084.53;5058867;28;45292;-73
2023/01/20 03:17:57;;;;;;;;;38.00;31.67;;;;;5.10;66.59;101037.97;5057895;28;45810;-76
2023/01/20 03:20:23;;;;;;;;;31.67;27.67;;;;;5.36;67.17;101099.50;5058048;28;45554;-74
2023/01/20 03:22:48;;;;;;;;;33.33;28.33;;;;;5.39;66.71;101101.09;5057649;28;45156;-73
2023/01/20 03:25:16;;;;;;;;;28.67;26.33;;;;;3.92;66.79;100855.28;5057972;28;45369;-76
2023/01/20 03:27:41;;;;;;;;;27.67;23.00;;;;;5.42;67.21;101119.34;5039189;28;48414;-71
2023/01/20 03:30:15;;;;;;;;;26.33;22.67;;;;;5.47;66.92;101109.34;5057009;28;45317;-74
2023/01/20 03:32:45;;;;;;;;;31.00;27.00;;;;;5.51;66.97;101113.47;5057580;28;45338;-74
2023/01/20 03:35:14;;;;;;;;;25.33;22.00;;;;;5.01;66.49;101033.31;5057633;28;45400;-75
2023/01/20 03:37:40;;;;;;;;;27.00;20.33;;;;;5.45;65.98;101124.44;5056167;28;46528;-72
2023/01/20 03:40:06;;;;;;;;;29.33;22.33;;;;;5.42;65.82;101103.53;5059446;28;45325;-73
2023/01/20 03:42:54;;;;;;;;;26.33;21.33;;;;;5.22;66.92;101073.22;5058401;28;45412;-74
2023/01/20 03:45:30;;;;;;;;;24.00;18.67;;;;;4.63;66.76;100987.56;5039443;28;45559;-73
2023/01/20 03:48:08;;;;;;;;;27.00;24.00;;;;;4.88;66.42;101043.81;5040063;28;47732;-73
2023/01/20 03:51:01;;;;;;;;;21.67;20.00;;;;;5.33;66.66;101125.22;5039103;28;45343;-74
2023/01/20 03:53:31;;;;;;;;;21.67;19.67;;;;;5.40;67.01;101126.50;5057298;28;45400;-72
2023/01/20 03:56:14;;;;;;;;;29.33;26.67;;;;;5.45;66.75;101127.06;5057602;28;45276;-73
2023/01/20 03:58:44;;;;;;;;;20.00;19.00;;;;;5.32;66.58;101118.25;5039768;28;48778;-75
2023/01/20 04:01:12;;;;;;;;;26.00;22.00;;;;;5.48;66.59;101129.50;5060374;28;45443;-74
2023/01/20 04:03:43;;;;;;;;;23.67;20.00;;;;;4.49;66.56;100970.88;5059615;28;45287;-72
2023/01/20 04:06:11;;;;;;;;;25.00;18.33;;;;;5.50;66.74;101135.50;5042996;28;45626;-75
2023/01/20 04:08:45;;;;;;;;;22.67;20.67;;;;;5.51;66.26;101137.19;5060587;28;46096;-72
2023/01/20 04:11:11;;;;;;;;;24.00;18.00;;;;;5.33;65.45;101104.97;5060602;28;45467;-74
2023/01/20 04:13:36;;;;;;;;;23.33;19.33;;;;;4.56;66.15;100982.69;5060356;28;45530;-74
2023/01/20 04:16:07;;;;;;;;;25.33;19.67;;;;;5.51;66.53;101147.75;5060458;28;45411;-75
2023/01/20 04:18:33;;;;;;;;;16.67;15.67;;;;;5.25;65.71;101122.25;5042124;28;45519;-74
2023/01/20 04:21:01;;;;;;;;;21.33;21.33;;;;;5.47;65.87;101159.44;5060169;28;45537;-71
2023/01/20 04:23:58;;;;;;;;;30.67;22.67;;;;;5.48;65.64;101145.31;5060733;28;45355;-73
2023/01/20 04:26:24;;;;;;;;;20.67;16.67;;;;;5.51;65.26;101155.66;5032583;28;45674;-74
2023/01/20 04:28:49;;;;;;;;;21.33;18.67;;;;;4.84;65.63;101044.13;5060157;28;46540;-72
2023/01/20 04:31:15;;;;;;;;;22.00;22.00;;;;;5.48;65.95;101153.22;5060268;28;45882;-73
2023/01/20 04:33:41;;;;;;;;;23.00;17.33;;;;;4.69;65.78;101024.03;5060555;28;45195;-73
2023/01/20 04:36:06;;;;;;;;;19.67;16.67;;;;;5.12;65.85;101099.31;5062042;28;45279;-73
2023/01/20 04:38:32;;;;;;;;;25.67;21.33;;;;;5.56;65.23;101169.38;5061429;28;45613;-73
2023/01/20 04:40:57;;;;;;;;;19.67;15.33;;;;;5.56;65.64;101163.25;5060181;28;45415;-74
2023/01/20 04:43:22;;;;;;;;;22.00;18.33;;;;;5.28;65.86;101132.59;5060263;28;45722;-74
2023/01/20 04:45:48;;;;;;;;;16.00;16.00;;;;;5.52;65.67;101167.03;5060643;28;45452;-75
2023/01/20 04:48:13;;;;;;;;;22.00;19.67;;;;;5.50;65.65;101164.50;5041407;28;67294;-73
2023/01/20 04:50:41;;;;;;;;;22.00;17.67;;;;;5.44;65.12;101167.56;5041803;28;45399;-72
2023/01/20 04:53:11;;;;;;;;;21.00;21.00;;;;;5.48;65.42;101175.16;5045169;28;45376;-74
2023/01/20 04:55:36;;;;;;;;;27.00;18.33;;;;;5.44;65.24;101178.09;5062421;28;45280;-75
2023/01/20 04:58:01;;;;;;;;;22.33;19.67;;;;;5.37;65.97;101184.72;5059878;28;45623;-73
2023/01/20 05:00:27;;;;;;;;;18.33;15.33;;;;;5.30;65.93;101173.72;5059078;28;51473;-73
2023/01/20 05:02:55;;;;;;;;;25.33;19.00;;;;;4.63;65.89;101063.94;5041652;28;45587;-76
2023/01/20 05:05:21;;;;;;;;;17.00;16.00;;;;;5.31;65.88;101175.41;5059311;28;45466;-74
2023/01/20 05:07:50;;;;;;;;;19.33;19.33;;;;;5.25;65.29;101180.25;5061959;28;49815;-75
2023/01/20 05:10:15;;;;;;;;;20.00;20.00;;;;;5.29;66.05;101192.28;5061625;28;45531;-74
2023/01/20 05:12:40;;;;;;;;;22.33;21.67;;;;;5.04;65.85;101153.50;5062369;28;45415;-75
2023/01/20 05:15:06;;;;;;;;;24.33;21.00;;;;;4.76;65.50;101115.72;5060605;28;45254;-73
2023/01/20 05:17:32;;;;;;;;;25.00;20.67;;;;;5.11;65.82;101200.41;5041169;28;48558;-76
2023/01/20 05:19:57;;;;;;;;;28.00;24.33;;;;;5.11;65.28;101210.97;5059390;28;45528;-73
2023/01/20 05:22:22;;;;;;;;;26.33;21.67;;;;;5.07;65.30;101217.38;5059360;28;45357;-73
2023/01/20 05:24:48;;;;;;;;;30.67;26.00;;;;;4.99;65.86;101227.53;5059634;28;45456;-75
2023/01/20 05:27:13;;;;;;;;;25.67;21.00;;;;;4.36;66.30;101120.00;5059124;28;45322;-77
2023/01/20 05:29:38;;;;;;;;;24.00;19.00;;;;;4.80;66.57;101205.91;5040820;28;47986;-73
2023/01/20 05:32:04;;;;;;;;;24.33;20.33;;;;;4.94;66.75;101229.63;5058953;28;50133;-74
2023/01/20 05:34:29;;;;;;;;;29.33;24.33;;;;;4.80;66.15;101205.91;5059636;28;45327;-73
2023/01/20 05:36:54;;;;;;;;;25.00;21.00;;;;;4.91;66.50;101234.25;5058910;28;46624;-71
2023/01/20 05:39:20;;;;;;;;;27.33;22.33;;;;;3.84;66.36;101052.19;5058850;28;45809;-75
2023/01/20 05:41:46;;;;;;;;;28.67;25.00;;;;;4.89;66.98;101222.00;5059407;28;45396;-74
2023/01/20 05:44:12;;;;;;;;;25.33;22.67;;;;;4.54;66.65;101175.94;5059289;28;45401;-73
2023/01/20 05:46:38;;;;;;;;;23.33;23.33;;;;;4.32;66.16;101147.47;5058877;28;46599;-73
2023/01/20 05:49:03;;;;;;;;;27.67;23.00;;;;;4.13;66.82;101115.31;5059033;28;45621;-72
2023/01/20 05:51:29;;;;;;;;;26.33;21.33;;;;;4.88;66.44;101241.41;5059050;28;45323;-74
2023/01/20 05:53:54;;;;;;;;;20.33;16.67;;;;;4.74;65.97;101222.13;5059328;28;45282;-74
2023/01/20 05:56:19;;;;;;;;;31.67;27.33;;;;;4.88;65.83;101254.56;5058762;28;45290;-73
2023/01/20 05:58:45;;;;;;;;;37.33;28.67;;;;;4.41;66.05;101172.41;5058600;28;53579;-73
2023/01/20 06:01:13;;;;;;;;;32.67;26.33;;;;;4.23;66.03;101153.31;5058723;28;45305;-74
2023/01/20 06:03:38;;;;;;;;;32.67;28.00;;;;;4.75;67.15;101250.16;5059016;28;45434;-75
2023/01/20 06:06:07;;;;;;;;;32.33;28.00;;;;;4.74;66.32;101230.00;5058601;28;45463;-75
2023/01/20 06:08:33;;;;;;;;;39.67;30.67;;;;;4.75;66.15;101235.19;5040754;28;45668;-73
2023/01/20 06:10:58;;;;;;;;;33.00;28.67;;;;;4.34;65.68;101166.63;5062130;28;45262;-75
2023/01/20 06:13:24;;;;;;;;;36.00;29.00;;;;;4.88;65.50;101261.63;5059234;28;45247;-73
2023/01/20 06:15:52;;;;;;;;;29.00;27.00;;;;;4.20;66.00;101162.19;5040094;28;47291;-74
2023/01/20 06:18:18;;;;;;;;;39.67;32.00;;;;;4.74;66.30;101261.63;5058517;28;45363;-75
2023/01/20 06:20:43;;;;;;;;;22.67;22.67;;;;;4.66;66.51;101262.09;5057602;28;45482;-74
2023/01/20 06:23:09;;;;;;;;;35.33;30.00;;;;;4.55;66.75;101264.53;5058390;28;45391;-75
2023/01/20 06:25:34;;;;;;;;;39.00;33.00;;;;;3.62;66.71;101109.63;5058546;28;45698;-74
2023/01/20 06:27:59;;;;;;;;;31.67;27.33;;;;;4.36;66.79;101249.00;5057980;28;45491;-74
2023/01/20 06:30:25;;;;;;;;;42.33;31.33;;;;;3.88;67.60;101177.31;5058340;28;45418;-75
2023/01/20 06:32:50;;;;;;;;;28.00;26.33;;;;;3.98;66.80;101194.22;5061702;28;45605;-72
2023/01/20 06:35:16;;;;;;;;;35.00;29.33;;;;;4.36;67.63;101285.84;5041335;28;47044;-73
2023/01/20 06:37:41;;;;;;;;;31.67;27.67;;;;;4.17;67.06;101229.97;5058439;28;45594;-75
2023/01/20 06:40:07;;;;;;;;;33.00;27.67;;;;;4.31;66.63;101260.75;5057728;28;45532;-75
2023/01/20 06:42:32;;;;;;;;;32.67;26.67;;;;;4.28;67.40;101253.88;5049698;28;45329;-76
2023/01/20 06:44:58;;;;;;;;;28.33;27.67;;;;;3.90;67.32;101188.56;5038102;28;45231;-73
2023/01/20 06:47:23;;;;;;;;;29.67;26.33;;;;;4.17;67.09;101233.44;5037896;28;45591;-76
2023/01/20 06:49:48;;;;;;;;;28.67;26.67;;;;;3.91;67.20;101206.06;5029066;28;45547;-75
2023/01/20 06:52:14;;;;;;;;;29.00;26.00;;;;;4.14;67.31;101248.56;5072405;28;45381;-75
2023/01/20 06:54:39;;;;;;;;;25.00;23.00;;;;;2.67;66.45;100986.41;5049916;28;56376;-75
2023/01/20 06:57:04;;;;;;;;;33.00;23.00;;;;;4.38;66.76;101307.66;5034174;28;45287;-74
2023/01/20 06:59:30;;;;;;;;;32.67;25.67;;;;;4.36;67.05;101270.03;5051950;28;45553;-72
2023/01/20 07:01:55;;;;;;;;;29.00;26.33;;;;;4.17;66.88;101232.59;5059549;28;45547;-76
2023/01/20 07:04:20;;;;;;;;;33.67;24.67;;;;;3.54;66.54;101125.00;5049593;28;45609;-72
2023/01/20 07:06:46;;;;;;;;;30.00;29.00;;;;;4.38;66.88;101286.59;5038307;28;45276;-73
2023/01/20 07:09:12;;;;;;;;;29.67;24.33;;;;;3.99;67.08;101224.00;5038293;28;45270;-75
2023/01/20 07:11:37;;;;;;;;;33.67;26.00;;;;;4.04;67.16;101243.03;5044046;28;45445;-75
2023/01/20 07:14:04;;;;;;;;;39.67;28.67;;;;;4.00;67.32;101259.91;5055720;28;46427;-74
2023/01/20 07:16:30;;;;;;;;;28.00;25.67;;;;;4.03;67.13;101270.25;5057849;28;45444;-75
2023/01/20 07:18:56;;;;;;;;;25.00;21.33;;;;;4.21;67.09;101302.56;5039170;28;45464;-73
2023/01/20 07:21:22;;;;;;;;;27.67;25.00;;;;;4.23;67.04;101311.22;5057858;28;45523;-74
2023/01/20 07:23:48;;;;;;;;;31.33;29.33;;;;;3.90;67.41;101266.66;5057514;28;46399;-78
2023/01/20 07:26:16;;;;;;;;;40.33;31.00;;;;;4.16;67.58;101299.31;5057148;28;45511;-75
2023/01/20 07:28:42;;;;;;;;;38.00;34.33;;;;;4.24;67.68;101312.91;5057799;28;45299;-75
2023/01/20 07:31:16;;;;;;;;;36.33;29.00;;;;;4.21;67.65;101334.13;5034252;28;46313;-73
2023/01/20 07:33:41;;;;;;;;;35.67;34.67;;;;;3.35;68.21;101176.00;5044274;28;45991;-73
2023/01/20 07:36:08;;;;;;;;;33.00;26.67;;;;;3.78;68.14;101262.91;5037134;28;45498;-73
2023/01/20 07:38:34;;;;;;;;;32.67;26.00;;;;;3.98;68.28;101286.28;5019207;28;45330;-75
2023/01/20 07:41:01;;;;;;;;;32.33;27.67;;;;;4.35;67.39;101339.44;5037979;28;45251;-72
2023/01/20 07:43:27;;;;;;;;;35.67;31.67;;;;;4.24;67.62;101340.06;5039801;28;48758;-73
2023/01/20 07:45:57;;;;;;;;;35.67;30.33;;;;;4.25;67.64;101340.91;5060481;28;45354;-75
2023/01/20 07:48:23;;;;;;;;;35.00;29.33;;;;;4.29;67.29;101337.16;5041538;28;45519;-75
2023/01/20 07:51:01;;;;;;;;;35.33;29.67;;;;;3.89;67.67;101271.06;5057784;28;45443;-74
2023/01/20 07:53:28;;;;;;;;;44.00;34.00;;;;;3.68;68.24;101256.50;5057104;28;45608;-73
2023/01/20 07:55:53;;;;;;;;;37.00;30.33;;;;;4.02;68.23;101301.94;5052029;28;45372;-74
2023/01/20 07:58:18;;;;;;;;;30.00;26.00;;;;;4.45;68.02;101347.66;5044721;28;45367;-75
2023/01/20 08:00:47;;;;;;;;;37.33;32.00;;;;;3.94;67.64;101269.00;5047355;28;45246;-73
2023/01/20 08:03:13;;;;;;;;;34.33;26.00;;;;;4.16;66.91;101304.59;5058308;28;46530;-73
2023/01/20 08:05:38;;;;;;;;;40.00;32.33;;;;;4.47;66.85;101336.09;5064502;28;45252;-74
2023/01/20 08:08:04;;;;;;;;;35.67;30.00;;;;;4.30;66.60;101285.38;5057305;28;45505;-73
2023/01/20 08:10:29;;;;;;;;;25.67;23.33;;;;;4.48;66.21;101305.34;5057716;28;45568;-72
2023/01/20 08:12:55;;;;;;;;;38.33;31.67;;;;;4.47;66.65;101306.28;5058252;28;45536;-72
2023/01/20 08:15:20;;;;;;;;;29.33;28.33;;;;;4.78;66.17;101358.81;5037569;28;46238;-74
2023/01/20 08:17:45;;;;;;;;;38.67;35.00;;;;;4.83;65.43;101363.81;5064823;28;45412;-74
2023/01/20 08:20:11;;;;;;;;;26.00;25.67;;;;;4.88;66.21;101377.56;5058604;28;45589;-73
2023/01/20 08:22:36;;;;;;;;;33.33;31.00;;;;;4.57;65.93;101305.63;5061131;28;46108;-76
2023/01/20 08:25:02;;;;;;;;;30.33;27.33;;;;;4.98;65.59;101362.03;5038175;28;46691;-74
2023/01/20 08:27:27;;;;;;;;;35.00;28.67;;;;;4.16;65.38;101212.50;5056369;28;45431;-75
2023/01/20 08:29:54;;;;;;;;;27.67;23.67;;;;;5.14;65.73;101368.91;5037735;28;45399;-75
2023/01/20 08:32:19;;;;;;;;;29.00;27.33;;;;;5.17;65.10;101366.06;5057717;28;46732;-74
2023/01/20 08:34:45;;;;;;;;;33.67;30.00;;;;;5.23;64.61;101382.47;5057180;28;45542;-71
2023/01/20 08:37:10;;;;;;;;;36.33;31.67;;;;;4.87;64.62;101308.22;5056560;28;45504;-73
2023/01/20 08:39:36;;;;;;;;;34.00;28.33;;;;;5.13;64.50;101353.19;5060587;28;45234;-73
2023/01/20 08:42:01;;;;;;;;;28.67;28.67;;;;;3.11;64.46;101011.88;5038386;28;47445;-74
2023/01/20 08:44:27;;;;;;;;;36.67;30.67;;;;;5.18;64.49;101351.09;5056086;28;45436;-73
2023/01/20 08:46:56;;;;;;;;;25.67;25.00;;;;;5.40;64.34;101384.91;5057308;28;45464;-75
2023/01/20 08:49:22;;;;;;;;;24.67;21.67;;;;;4.41;64.70;101218.00;5061901;28;45515;-75
2023/01/20 08:51:48;;;;;;;;;23.67;22.67;;;;;5.24;62.27;101349.91;5060604;28;45525;-74
2023/01/20 08:54:14;;;;;;;;;26.67;23.33;;;;;5.08;62.87;101329.75;5059792;28;45459;-73
2023/01/20 08:56:39;;;;;;;;;22.33;19.00;;;;;5.18;62.52;101333.50;5039961;28;45797;-76
2023/01/20 08:59:05;;;;;;;;;35.67;30.33;;;;;4.81;62.49;101270.88;5060130;28;45516;-75
2023/01/20 09:01:35;;;;;;;;;28.67;24.67;;;;;5.56;62.30;101383.00;5041739;28;47419;-76
2023/01/20 09:04:01;;;;;;;;;29.33;27.67;;;;;4.92;62.18;101260.50;5076078;27;45468;-72
2023/01/20 09:06:26;;;;;;;;;34.33;27.33;;;;;5.04;62.55;101270.28;5069660;28;45561;-73
2023/01/20 09:08:52;;;;;;;;;31.00;26.67;;;;;5.78;62.83;101377.22;5043506;28;45341;-73
2023/01/20 09:11:20;;;;;;;;;29.00;28.33;;;;;5.92;62.13;101387.78;5076286;28;47119;-75
2023/01/20 09:13:46;;;;;;;;;19.00;16.67;;;;;5.94;61.72;101395.59;5059353;28;45305;-71
2023/01/20 09:16:14;;;;;;;;;25.00;19.67;;;;;5.93;62.28;101396.53;5059481;28;45312;-74
2023/01/20 09:18:39;;;;;;;;;20.33;20.00;;;;;5.97;62.17;101392.75;5041214;28;45699;-76
2023/01/20 09:21:05;;;;;;;;;27.33;24.67;;;;;6.33;61.83;101393.00;5041099;28;47815;-73
2023/01/20 09:23:31;;;;;;;;;22.67;21.00;;;;;6.45;61.03;101401.09;5040834;28;45404;-74
2023/01/20 09:25:59;;;;;;;;;23.67;21.67;;;;;5.62;61.30;101266.59;5059289;28;45372;-72
2023/01/20 09:28:24;;;;;;;;;20.67;16.67;;;;;5.56;60.78;101237.94;5059388;28;45647;-74
2023/01/20 09:30:50;;;;;;;;;21.00;18.33;;;;;6.77;60.13;101414.78;5060146;27;46911;-74
2023/01/20 09:33:15;;;;;;;;;13.33;13.33;;;;;6.83;59.76;101422.31;5041945;28;45469;-75
2023/01/20 09:35:40;;;;;;;;;17.33;17.33;;;;;6.58;59.74;101359.69;5056106;28;45483;-73
2023/01/20 09:43:55;;;;;;;;;19.33;17.33;;;;;7.13;59.92;101427.31;5058751;28;45509;-73
2023/01/20 09:46:37;;;;;;;;;17.00;14.67;;;;;6.38;59.80;101295.84;5059038;28;45618;-77
2023/01/20 09:55:16;;;;;;;;;26.33;25.33;;;;;6.02;59.83;101240.25;5069758;28;45301;-74
2023/01/20 09:57:49;;;;;;;;;14.67;14.00;;;;;7.15;60.08;101430.69;5063340;28;45355;-79
2023/01/20 10:00:20;;;;;;;;;12.33;11.33;;;;;7.18;60.24;101433.97;5043074;28;45345;-73
2023/01/20 10:02:54;;;;;;;;;12.33;8.33;;;;;6.71;60.33;101349.97;5060508;28;45439;-73
2023/01/20 10:05:24;;;;;;;;;15.33;14.00;;;;;6.82;60.14;101359.84;5059708;28;45432;-76
2023/01/20 10:07:59;;;;;;;;;14.67;12.67;;;;;6.77;60.33;101346.91;5052005;28;45483;-74
2023/01/20 10:10:34;;;;;;;;;19.67;19.00;;;;;6.81;60.36;101350.19;5040440;28;45465;-73
2023/01/20 10:13:19;;;;;;;;;10.00;9.67;;;;;7.28;60.91;101419.16;5043077;28;45571;-75
2023/01/20 10:15:51;;;;;;;;;16.00;14.00;;;;;7.34;61.32;101433.75;5042951;28;45900;-75
2023/01/20 10:18:34;;;;;;;;;11.33;11.33;;;;;6.35;61.58;101267.00;5042842;28;45484;-76
2023/01/20 10:21:18;;;;;;;;;12.33;10.67;;;;;6.65;61.36;101313.41;5058562;28;45559;-78
2023/01/20 10:24:10;;;;;;;;;11.00;11.00;;;;;7.21;61.80;101409.13;5057362;28;46894;-75
2023/01/20 10:26:45;;;;;;;;;17.67;13.00;;;;;7.42;61.70;101467.63;5038864;27;46333;-74
2023/01/20 10:29:34;;;;;;;;;19.00;14.00;;;;;7.33;62.42;101438.19;5062859;28;45206;-73
2023/01/20 10:32:01;;;;;;;;;33.00;30.33;;;;;6.76;62.00;101333.81;5052645;28;45541;-76
2023/01/20 10:34:38;;;;;;;;;44.00;38.33;;;;;7.48;62.51;101449.53;5043438;28;45989;-75
2023/01/20 10:37:08;;;;;;;;;18.00;13.67;;;;;5.41;62.09;101088.66;5037647;28;45530;-73
2023/01/20 10:39:56;;;;;;;;;19.33;16.67;;;;;7.70;61.67;101442.72;5057508;28;45442;-73
2023/01/20 10:42:23;;;;;;;;;14.00;11.00;;;;;7.71;61.31;101450.56;5068515;27;45451;-75
2023/01/20 10:44:51;;;;;;;;;15.67;14.33;;;;;7.10;61.60;101334.97;5057112;28;46394;-74
2023/01/20 10:47:46;;;;;;;;;10.00;10.00;;;;;7.93;60.92;101452.53;5057759;28;45360;-75
2023/01/20 10:50:30;;;;;;;;;7.00;6.67;;;;;8.04;60.37;101449.13;5040358;28;45431;-74
2023/01/20 10:53:10;;;;;;;;;17.00;15.00;;;;;7.52;59.58;101352.25;5066913;28;45270;-73
2023/01/20 10:55:57;;;;;;;;;13.67;10.67;;;;;8.17;58.84;101441.97;5043991;28;48111;-73
2023/01/20 10:58:29;;;;;;;;;15.33;13.33;;;;;8.24;58.88;101446.72;5058019;28;45423;-72
2023/01/20 11:00:58;;;;;;;;;13.67;13.00;;;;;8.32;58.61;101447.94;5057742;28;45380;-77
2023/01/20 11:03:24;;;;;;;;;10.33;9.33;;;;;6.77;58.58;101182.22;5059800;28;45183;-75
2023/01/20 11:05:51;;;;;;;;;11.67;10.33;;;;;8.39;57.50;101449.22;5043226;28;46304;-78
2023/01/20 11:08:24;;;;;;;;;12.00;10.67;;;;;8.30;56.78;101423.38;5051407;28;45797;-73
2023/01/20 11:10:54;;;;;;;;;14.67;13.00;;;;;8.34;57.39;101430.16;5057921;28;45280;-77
2023/01/20 11:13:20;;;;;;;;;12.00;10.67;;;;;8.02;57.48;101369.78;5056512;28;45472;-74
2023/01/20 11:16:19;;;;;;;;;14.67;14.67;;;;;8.40;56.75;101446.44;5039307;28;45500;-74
2023/01/20 11:19:00;;;;;;;;;12.67;11.33;;;;;8.22;57.16;101402.75;5034859;28;45639;-74
2023/01/20 11:21:29;;;;;;;;;17.33;16.00;;;;;8.04;57.26;101367.03;5027880;28;45324;-78
2023/01/20 11:23:56;;;;;;;;;11.33;8.33;;;;;8.55;56.59;101455.06;5035366;28;45504;-74
2023/01/20 11:26:21;;;;;;;;;27.00;25.00;;;;;8.57;56.53;101449.66;5039359;28;46608;-77
2023/01/20 11:29:13;;;;;;;;;14.00;12.00;;;;;8.51;56.19;101448.31;5039330;28;45754;-73
2023/01/20 11:31:46;;;;;;;;;14.67;14.67;;;;;8.21;56.08;101409.88;5030688;28;45371;-74
2023/01/20 11:34:31;;;;;;;;;14.33;12.00;;;;;7.59;56.19;101334.97;5039057;28;45277;-72
2023/01/20 11:37:05;;;;;;;;;15.67;13.00;;;;;8.23;55.99;101446.84;5044022;28;48157;-74